Time;durP1;ratioP1;P1;durP2;ratioP2;P2;SDS_P1;SDS_P2;PMS_P1;PMS_P2;Temp;Humidity;BMP_temperature;BMP_pressure;BME280_temperature;BME280_humidity;BME280_pressure;Samples;Min_cycle;Max_cycle;Signal;HPM_P1;HPM_P2
2022/07/07 00:01:59;;;;;;;4.03;0.45;;;;;;;21.74;35.08;101466.38;5025097;27;99597;-71
2022/07/07 00:04:25;;;;;;;0.63;0.50;;;;;;;21.44;35.74;101464.00;5027217;27;97749;-70
2022/07/07 00:06:52;;;;;;;2.08;0.63;;;;;;;21.50;35.80;101462.72;5025202;27;97008;-70
2022/07/07 00:09:20;;;;;;;3.10;0.60;;;;;;;21.65;35.50;101458.97;5028202;27;98537;-71
2022/07/07 00:11:49;;;;;;;5.85;0.60;;;;;;;21.76;35.39;101456.38;5032262;28;98899;-71
2022/07/07 00:14:15;;;;;;;2.15;0.70;;;;;;;21.71;35.63;101450.47;5026470;27;99326;-70
2022/07/07 00:16:42;;;;;;;5.55;0.68;;;;;;;21.80;35.58;101448.94;5025691;27;97030;-70
2022/07/07 00:19:08;;;;;;;6.35;0.63;;;;;;;21.69;35.53;101438.06;5031368;27;96887;-71
2022/07/07 00:21:35;;;;;;;8.90;1.10;;;;;;;21.86;35.53;101438.59;5022368;27;99407;-70
2022/07/07 00:24:01;;;;;;;2.45;0.60;;;;;;;21.85;35.55;101439.59;5031948;27;98946;-71
2022/07/07 00:26:30;;;;;;;1.67;0.52;;;;;;;21.74;35.57;101443.97;5020636;27;96916;-70
2022/07/07 00:28:56;;;;;;;5.35;0.73;;;;;;;21.57;35.88;101438.94;5025697;27;98554;-70
2022/07/07 00:31:23;;;;;;;3.45;0.50;;;;;;;21.67;36.09;101438.19;5023549;27;99489;-70
2022/07/07 00:33:49;;;;;;;2.67;0.60;;;;;;;21.85;35.73;101426.13;5031056;27;97098;-70
2022/07/07 00:36:16;;;;;;;5.90;0.77;;;;;;;21.86;35.86;101427.81;5028105;27;96925;-70
2022/07/07 00:38:42;;;;;;;2.03;0.50;;;;;;;21.86;35.94;101422.44;5031889;27;98157;-71
2022/07/07 00:41:09;;;;;;;1.10;0.50;;;;;;;21.72;36.05;101424.44;5027191;27;97813;-71
2022/07/07 00:43:40;;;;;;;6.47;0.55;;;;;;;21.85;35.94;101417.19;5026539;27;98969;-70
2022/07/07 00:46:07;;;;;;;2.88;0.65;;;;;;;21.75;36.11;101425.06;5026835;27;96848;-71
2022/07/07 00:48:35;;;;;;;2.70;0.50;;;;;;;21.60;36.54;101426.13;5032084;27;97071;-71
2022/07/07 00:51:04;;;;;;;2.22;0.60;;;;;;;21.73;36.28;101429.66;5029002;27;98938;-71
2022/07/07 00:53:30;;;;;;;2.05;0.75;;;;;;;21.77;36.24;101424.94;5028380;27;97793;-71
2022/07/07 00:55:57;;;;;;;13.32;1.60;;;;;;;21.69;36.36;101428.19;5027583;27;96844;-70
2022/07/07 00:58:23;;;;;;;3.15;0.50;;;;;;;21.75;36.02;101424.19;5028941;27;96817;-71
2022/07/07 01:00:51;;;;;;;1.75;0.50;;;;;;;21.64;36.12;101421.41;5026906;27;99141;-70
2022/07/07 01:03:17;;;;;;;4.55;0.50;;;;;;;21.43;36.81;101419.28;5028948;27;98786;-70
2022/07/07 01:05:47;;;;;;;3.42;0.47;;;;;;;21.32;36.87;101426.38;5026002;27;98711;-71
2022/07/07 01:08:16;;;;;;;0.98;0.60;;;;;;;21.42;37.00;101428.28;5031900;27;96893;-71
2022/07/07 01:10:43;;;;;;;2.75;0.50;;;;;;;21.03;38.03;101426.50;5026656;27;98850;-70
2022/07/07 01:13:09;;;;;;;2.05;0.55;;;;;;;21.01;38.89;101433.81;5022117;28;99125;-70
2022/07/07 01:15:35;;;;;;;5.30;0.73;;;;;;;20.98;39.51;101430.47;5031289;27;97144;-72
2022/07/07 01:18:04;;;;;;;5.88;1.10;;;;;;;21.03;40.45;101428.34;5024576;27;96816;-71
2022/07/07 01:20:30;;;;;;;1.67;0.40;;;;;;;20.92;41.00;101429.06;5026255;27;98925;-70
2022/07/07 01:22:58;;;;;;;4.75;0.65;;;;;;;20.49;42.77;101422.16;5026880;27;99643;-70
2022/07/07 01:25:25;;;;;;;3.30;0.52;;;;;;;20.47;42.79;101427.66;5032404;27;97034;-70
2022/07/07 01:27:52;;;;;;;3.13;0.43;;;;;;;19.88;44.65;101424.31;5028370;27;98210;-70
2022/07/07 01:30:19;;;;;;;2.92;0.77;;;;;;;20.14;44.95;101424.44;5027280;27;99040;-70
2022/07/07 01:32:46;;;;;;;3.20;0.47;;;;;;;20.34;44.96;101417.81;5027092;27;100705;-70
2022/07/07 01:35:12;;;;;;;3.03;0.85;;;;;;;20.29;45.10;101424.28;5029426;27;99778;-70
2022/07/07 01:37:39;;;;;;;1.73;0.57;;;;;;;20.10;46.19;101423.75;5029178;27;97053;-71
2022/07/07 01:40:10;;;;;;;2.90;0.47;;;;;;;20.17;47.31;101418.88;5032388;27;100534;-71
2022/07/07 01:42:36;;;;;;;4.10;0.95;;;;;;;20.39;47.22;101418.38;5023284;27;97571;-70
2022/07/07 01:45:03;;;;;;;5.93;0.50;;;;;;;20.43;47.29;101409.13;5027746;27;96913;-71
2022/07/07 01:47:30;;;;;;;3.40;0.60;;;;;;;20.42;46.96;101418.16;5027238;27;96878;-70
2022/07/07 01:49:56;;;;;;;6.28;0.70;;;;;;;20.26;48.41;101411.09;5031135;27;99943;-72
2022/07/07 01:52:23;;;;;;;1.63;0.68;;;;;;;20.38;48.34;101411.28;5025593;27;99079;-70
2022/07/07 01:54:49;;;;;;;1.83;0.55;;;;;;;20.32;48.46;101411.66;5027102;27;98961;-70
2022/07/07 01:57:17;;;;;;;3.03;0.75;;;;;;;20.08;48.52;101404.25;5031172;27;96790;-70
2022/07/07 01:59:43;;;;;;;7.10;0.50;;;;;;;19.89;49.79;101415.28;5028048;27;98870;-71
2022/07/07 02:02:10;;;;;;;3.78;0.82;;;;;;;19.74;50.16;101404.66;5025989;27;98878;-70
2022/07/07 02:04:36;;;;;;;3.03;0.70;;;;;;;19.71;51.17;101407.53;5026445;27;97233;-70
2022/07/07 02:07:03;;;;;;;1.80;0.50;;;;;;;19.81;51.09;101411.38;5022876;27;97833;-69
2022/07/07 02:09:30;;;;;;;2.83;0.52;;;;;;;19.95;50.71;101403.31;5029288;27;99182;-71
2022/07/07 02:11:56;;;;;;;3.38;0.95;;;;;;;19.76;51.86;101408.09;5031058;27;98897;-70
2022/07/07 02:14:24;;;;;;;3.28;0.60;;;;;;;19.88;51.86;101413.56;5025317;27;96760;-71
2022/07/07 02:16:51;;;;;;;3.75;0.73;;;;;;;20.00;50.93;101401.19;5028319;27;97004;-70
2022/07/07 02:19:18;;;;;;;2.95;0.63;;;;;;;19.86;51.43;101404.75;5030144;27;98742;-71
2022/07/07 02:21:44;;;;;;;3.78;0.80;;;;;;;19.86;52.17;101399.38;5022797;27;98829;-71
2022/07/07 02:24:10;;;;;;;6.95;1.10;;;;;;;20.01;51.91;101397.56;5031628;27;97341;-70
2022/07/07 02:26:37;;;;;;;2.08;0.60;;;;;;;19.94;52.80;101388.19;5025437;27;96833;-70
2022/07/07 02:29:04;;;;;;;4.18;0.75;;;;;;;19.66;53.27;101388.19;5030301;27;99164;-70
2022/07/07 02:31:32;;;;;;;2.42;0.90;;;;;;;19.83;54.32;101394.22;5027339;27;98885;-71
2022/07/07 02:33:58;;;;;;;4.90;0.70;;;;;;;19.78;53.56;101390.09;5023865;27;96809;-70
2022/07/07 02:36:25;;;;;;;5.53;0.98;;;;;;;19.83;53.94;101382.63;5024139;27;97486;-71
2022/07/07 02:38:51;;;;;;;4.50;1.08;;;;;;;20.00;53.90;101386.91;5026092;27;97761;-70
2022/07/07 02:41:19;;;;;;;4.57;0.80;;;;;;;19.83;54.37;101375.44;5022867;27;98876;-71
2022/07/07 02:43:46;;;;;;;3.70;0.80;;;;;;;19.60;55.23;101383.22;5022382;27;97081;-71
2022/07/07 02:46:12;;;;;;;4.97;0.88;;;;;;;19.74;54.51;101376.03;5021600;27;97356;-70
2022/07/07 02:48:40;;;;;;;5.57;0.82;;;;;;;19.72;55.16;101371.72;5027811;27;99997;-71
2022/07/07 02:51:08;;;;;;;10.15;1.10;;;;;;;19.70;55.54;101373.63;5029438;27;98752;-71
2022/07/07 02:53:36;;;;;;;3.65;1.00;;;;;;;19.81;55.35;101361.28;5028363;27;97353;-69
2022/07/07 02:56:02;;;;;;;3.35;0.90;;;;;;;19.75;55.80;101374.22;5029808;27;96872;-69
2022/07/07 02:58:29;;;;;;;3.22;0.70;;;;;;;19.63;56.47;101374.97;5029860;27;99347;-70
2022/07/07 03:00:55;;;;;;;3.50;0.95;;;;;;;19.67;56.18;101371.16;5028933;27;99358;-70
2022/07/07 03:03:22;;;;;;;5.10;1.30;;;;;;;19.54;56.81;101364.84;5029410;27;96745;-69
2022/07/07 03:05:50;;;;;;;2.03;0.98;;;;;;;19.29;56.45;101363.69;5024694;27;96752;-70
2022/07/07 03:08:16;;;;;;;4.40;0.95;;;;;;;19.65;56.24;101354.31;5029172;27;98931;-70
2022/07/07 03:10:43;;;;;;;3.65;0.80;;;;;;;19.81;56.10;101355.06;5024589;27;98346;-70
2022/07/07 03:13:09;;;;;;;5.78;1.40;;;;;;;19.93;56.11;101356.09;5019530;27;97325;-70
2022/07/07 03:15:35;;;;;;;3.13;1.00;;;;;;;19.90;56.26;101347.25;5030500;28;96964;-70
2022/07/07 03:18:02;;;;;;;3.50;1.08;;;;;;;19.86;55.87;101351.13;5022578;27;98965;-69
2022/07/07 03:20:28;;;;;;;3.83;1.00;;;;;;;19.63;56.58;101343.66;5029875;27;100659;-69
2022/07/07 03:22:56;;;;;;;2.38;0.80;;;;;;;19.65;57.06;101335.53;5023176;27;98414;-70
2022/07/07 03:25:22;;;;;;;3.80;1.23;;;;;;;19.77;56.09;101345.47;5032102;27;96970;-71
2022/07/07 03:27:49;;;;;;;5.60;1.35;;;;;;;19.38;57.50;101333.59;5021268;27;101984;-71
2022/07/07 03:30:15;;;;;;;3.05;0.95;;;;;;;19.70;56.54;101326.22;5027038;27;100784;-70
2022/07/07 03:32:42;;;;;;;3.55;1.50;;;;;;;19.72;56.68;101326.13;5025655;27;97318;-71
2022/07/07 03:35:09;;;;;;;4.15;1.40;;;;;;;19.64;56.05;101331.13;5026411;27;97374;-72
2022/07/07 03:37:36;;;;;;;4.28;1.58;;;;;;;19.85;55.69;101335.13;5021033;27;99148;-70
2022/07/07 03:40:05;;;;;;;3.38;1.38;;;;;;;19.80;55.68;101324.69;5028973;27;98772;-70
2022/07/07 03:42:31;;;;;;;2.42;1.60;;;;;;;19.82;56.04;101332.66;5028011;27;96707;-70
2022/07/07 03:44:58;;;;;;;2.17;1.10;;;;;;;19.69;56.13;101327.19;5026514;27;97056;-72
2022/07/07 03:47:24;;;;;;;2.45;1.15;;;;;;;19.59;56.47;101330.56;5022707;27;98917;-71
2022/07/07 03:49:50;;;;;;;2.30;1.15;;;;;;;19.39;57.15;101331.78;5028594;27;98694;-70
2022/07/07 03:52:17;;;;;;;2.05;1.10;;;;;;;19.29;57.22;101330.66;5022055;27;96901;-70
2022/07/07 03:54:43;;;;;;;2.40;1.00;;;;;;;19.13;57.09;101328.06;5028723;27;96848;-70
2022/07/07 03:57:11;;;;;;;3.08;1.10;;;;;;;19.42;56.70;101323.56;5018814;27;99150;-69
2022/07/07 03:59:38;;;;;;;4.82;1.42;;;;;;;19.64;56.19;101328.44;5030893;27;99035;-69
2022/07/07 04:02:05;;;;;;;4.95;1.35;;;;;;;19.30;56.96;101329.69;5024489;27;97247;-71
2022/07/07 04:04:31;;;;;;;4.25;1.05;;;;;;;19.16;57.89;101319.84;5029168;27;97117;-69
2022/07/07 04:06:57;;;;;;;3.25;1.42;;;;;;;19.18;57.12;101319.72;5027021;27;99089;-69
2022/07/07 04:09:24;;;;;;;3.80;1.10;;;;;;;19.26;57.23;101322.81;5028368;27;99447;-69
2022/07/07 04:11:50;;;;;;;3.60;1.00;;;;;;;19.28;57.92;101311.03;5028222;27;96796;-70
2022/07/07 04:14:17;;;;;;;1.77;1.00;;;;;;;19.39;57.31;101313.91;5028463;27;96975;-70
2022/07/07 04:16:44;;;;;;;2.22;1.30;;;;;;;19.34;57.68;101312.47;5026695;27;98506;-69
2022/07/07 04:19:10;;;;;;;5.85;2.00;;;;;;;19.37;57.75;101306.91;5031805;27;101163;-70
2022/07/07 04:21:36;;;;;;;2.40;1.15;;;;;;;19.57;57.45;101297.63;5031680;27;96763;-70
2022/07/07 04:24:03;;;;;;;2.75;1.48;;;;;;;19.27;57.93;101293.25;5031236;27;97106;-71
2022/07/07 04:26:30;;;;;;;3.20;1.17;;;;;;;19.13;58.78;101287.88;5026970;27;98894;-71
2022/07/07 04:28:56;;;;;;;1.83;1.27;;;;;;;19.11;59.09;101287.97;5026167;27;99389;-70
2022/07/07 04:31:24;;;;;;;4.85;1.33;;;;;;;19.14;58.63;101286.06;5031028;27;97079;-71
2022/07/07 04:33:50;;;;;;;4.82;1.50;;;;;;;19.20;58.75;101275.84;5028922;27;96849;-70
2022/07/07 04:36:16;;;;;;;5.63;1.40;;;;;;;19.25;58.02;101280.88;5030121;27;98933;-70
2022/07/07 04:38:43;;;;;;;1.25;1.15;;;;;;;18.90;59.14;101267.91;5030597;27;99219;-70
2022/07/07 04:41:09;;;;;;;1.77;1.40;;;;;;;19.18;59.29;101269.69;5031772;27;97289;-71
2022/07/07 04:43:36;;;;;;;3.08;1.38;;;;;;;19.00;59.22;101268.19;5023269;27;97173;-70
2022/07/07 04:46:02;;;;;;;2.60;1.55;;;;;;;19.28;58.88;101270.84;5029106;27;101610;-71
2022/07/07 04:48:30;;;;;;;7.00;1.48;;;;;;;19.23;59.08;101258.72;5024641;27;98799;-70
2022/07/07 04:50:56;;;;;;;2.05;1.33;;;;;;;19.41;58.52;101265.56;5029721;27;96717;-69
2022/07/07 04:53:22;;;;;;;3.58;1.50;;;;;;;19.40;58.05;101262.03;5024053;27;97396;-70
2022/07/07 04:55:49;;;;;;;2.85;1.52;;;;;;;19.46;58.86;101264.34;5034826;27;102159;-70
2022/07/07 04:58:15;;;;;;;3.78;1.70;;;;;;;19.33;58.90;101254.47;5030172;27;98948;-72
2022/07/07 05:00:42;;;;;;;6.63;3.38;;;;;;;19.53;58.53;101254.09;5033872;27;96844;-70
2022/07/07 05:03:09;;;;;;;3.33;1.30;;;;;;;19.62;58.36;101252.66;5031123;27;97069;-70
2022/07/07 05:05:36;;;;;;;9.20;1.98;;;;;;;19.60;58.54;101254.56;5029692;27;98955;-69
2022/07/07 05:08:03;;;;;;;2.50;1.63;;;;;;;19.32;59.28;101250.94;5027812;27;101495;-70
2022/07/07 05:10:30;;;;;;;2.80;1.40;;;;;;;19.45;58.43;101254.53;5029644;27;97467;-70
2022/07/07 05:12:59;;;;;;;2.03;1.42;;;;;;;19.59;58.48;101250.16;5023127;27;97245;-71
2022/07/07 05:15:26;;;;;;;3.10;1.48;;;;;;;19.62;58.05;101244.59;5030473;27;98867;-70
2022/07/07 05:17:52;;;;;;;4.43;1.40;;;;;;;19.48;58.53;101242.81;5025428;27;102709;-69
2022/07/07 05:20:19;;;;;;;2.92;1.73;;;;;;;19.61;58.14;101243.75;5030071;27;96889;-69
2022/07/07 05:22:47;;;;;;;3.15;1.63;;;;;;;19.51;58.71;101250.63;5023415;27;97365;-69
2022/07/07 05:25:13;;;;;;;4.18;1.83;;;;;;;19.49;58.25;101253.41;5030053;27;101461;-69
2022/07/07 05:27:39;;;;;;;4.53;1.73;;;;;;;19.60;58.34;101249.19;5022025;27;97765;-69
2022/07/07 05:30:08;;;;;;;6.85;1.60;;;;;;;19.43;59.41;101248.41;5028378;27;97859;-70
2022/07/07 05:32:34;;;;;;;3.80;1.60;;;;;;;19.23;59.36;101245.31;5023956;27;97271;-70
2022/07/07 05:35:11;;;;;;;4.75;1.52;;;;;;;19.29;59.52;101247.59;5026700;27;99392;-69
2022/07/07 05:37:40;;;;;;;5.63;1.40;;;;;;;19.40;59.48;101240.59;5025046;27;99825;-69
2022/07/07 05:40:10;;;;;;;2.83;1.55;;;;;;;19.37;59.50;101246.13;5028698;27;96774;-70
2022/07/07 05:42:36;;;;;;;2.42;1.50;;;;;;;19.33;59.54;101244.63;5019122;27;97901;-69
2022/07/07 05:45:03;;;;;;;5.65;1.95;;;;;;;19.34;59.77;101232.94;5024111;27;100572;-70
2022/07/07 05:47:30;;;;;;;3.78;1.67;;;;;;;19.61;59.30;101242.88;5024779;28;101436;-69
2022/07/07 05:49:56;;;;;;;2.58;1.48;;;;;;;19.79;58.84;101247.88;5025406;27;97196;-69
2022/07/07 05:52:23;;;;;;;5.25;1.50;;;;;;;19.56;58.69;101239.66;5028602;28;99084;-69
2022/07/07 05:54:50;;;;;;;2.45;1.55;;;;;;;19.62;58.62;101240.09;5023537;27;99016;-69
2022/07/07 05:57:18;;;;;;;3.22;1.27;;;;;;;19.06;59.85;101246.38;5019028;27;98926;-69
2022/07/07 05:59:44;;;;;;;4.60;1.50;;;;;;;19.34;60.60;101248.16;5021787;27;100179;-69
2022/07/07 06:02:10;;;;;;;2.38;1.55;;;;;;;19.41;59.37;101242.31;5028147;27;99039;-70
2022/07/07 06:04:37;;;;;;;7.55;1.83;;;;;;;19.60;59.22;101233.97;5026439;27;99139;-70
2022/07/07 06:07:04;;;;;;;3.63;1.42;;;;;;;19.41;59.82;101239.63;5024793;27;100588;-70
2022/07/07 06:09:31;;;;;;;4.10;1.63;;;;;;;19.48;59.88;101242.81;5022421;27;97592;-71
2022/07/07 06:11:58;;;;;;;1.80;1.60;;;;;;;19.46;60.10;101237.53;5030904;27;96852;-70
2022/07/07 06:14:26;;;;;;;4.40;2.00;;;;;;;19.49;59.71;101240.00;5029157;27;101452;-70
2022/07/07 06:16:53;;;;;;;2.65;1.73;;;;;;;19.59;59.21;101239.44;5025775;27;101330;-68
2022/07/07 06:19:19;;;;;;;4.93;2.20;;;;;;;19.66;59.01;101238.06;5025666;27;97412;-71
2022/07/07 06:21:45;;;;;;;2.25;1.60;;;;;;;19.64;59.37;101231.94;5022857;27;96912;-70
2022/07/07 06:24:12;;;;;;;3.13;2.00;;;;;;;19.44;60.39;101230.53;5020894;27;98610;-69
2022/07/07 06:26:39;;;;;;;3.08;2.08;;;;;;;19.52;60.19;101235.41;5026005;27;98864;-69
2022/07/07 06:29:06;;;;;;;5.60;2.30;;;;;;;19.52;60.16;101225.56;5026681;27;97806;-69
2022/07/07 06:31:34;;;;;;;3.83;1.88;;;;;;;19.65;59.64;101228.31;5022043;27;98197;-72
2022/07/07 06:34:00;;;;;;;2.85;1.98;;;;;;;19.72;59.68;101221.56;5022262;27;99101;-69
2022/07/07 06:36:26;;;;;;;1.98;1.65;;;;;;;19.68;59.88;101228.13;5024540;27;100913;-69
2022/07/07 06:38:53;;;;;;;5.07;1.88;;;;;;;19.72;59.52;101218.91;5024348;27;96940;-70
2022/07/07 06:41:19;;;;;;;3.55;1.80;;;;;;;19.93;59.03;101227.34;5027413;27;98737;-71
2022/07/07 06:43:46;;;;;;;2.13;1.92;;;;;;;19.84;59.42;101220.75;5022661;27;98137;-70
2022/07/07 06:46:12;;;;;;;2.63;1.60;;;;;;;19.80;59.33;101224.63;5030228;27;101692;-70
2022/07/07 06:48:40;;;;;;;2.97;1.60;;;;;;;19.73;59.36;101225.97;5021706;27;97755;-70
2022/07/07 06:51:07;;;;;;;1.90;1.65;;;;;;;19.90;59.66;101231.06;5024538;27;97105;-70
2022/07/07 06:53:33;;;;;;;5.07;2.00;;;;;;;19.68;59.76;101230.78;5019104;27;98920;-70
2022/07/07 06:56:00;;;;;;;1.90;1.60;;;;;;;19.77;59.41;101220.31;5025513;27;99317;-70
2022/07/07 06:58:26;;;;;;;4.18;2.92;;;;;;;19.80;59.52;101232.66;5028175;27;97065;-69
2022/07/07 07:00:53;;;;;;;4.28;1.55;;;;;;;19.67;59.79;101229.94;5027456;27;96889;-69
2022/07/07 07:03:19;;;;;;;1.70;1.60;;;;;;;19.83;59.81;101232.44;5021401;27;101948;-70
2022/07/07 07:06:05;;;;;;;3.95;1.65;;;;;;;19.81;60.39;101232.56;5024515;27;99074;-69
2022/07/07 07:08:31;;;;;;;1.63;1.40;;;;;;;19.98;58.86;101227.88;5019041;27;97896;-70
2022/07/07 07:10:58;;;;;;;1.40;1.30;;;;;;;20.00;58.97;101224.16;5027400;27;96776;-75
2022/07/07 07:13:25;;;;;;;24.63;2.30;;;;;;;19.79;59.81;101220.22;5022513;27;101778;-70
2022/07/07 07:15:52;;;;;;;3.35;1.50;;;;;;;19.94;59.83;101223.69;5028393;27;101355;-69
2022/07/07 07:18:18;;;;;;;1.60;1.40;;;;;;;19.92;60.02;101226.47;5028852;27;97291;-69
2022/07/07 07:20:44;;;;;;;1.88;1.27;;;;;;;20.26;58.70;101220.56;5024057;27;97768;-70
2022/07/07 07:23:12;;;;;;;1.48;1.25;;;;;;;20.39;58.31;101217.06;5020628;27;100201;-71
2022/07/07 07:25:38;;;;;;;2.45;1.30;;;;;;;20.32;58.18;101215.72;5029120;27;99431;-70
2022/07/07 07:28:05;;;;;;;2.08;0.88;;;;;;;20.40;58.10;101213.41;5027884;27;97789;-70
2022/07/07 07:30:32;;;;;;;2.58;1.30;;;;;;;20.38;58.57;101209.97;5032813;27;97492;-71
2022/07/07 07:32:59;;;;;;;1.55;1.20;;;;;;;20.21;58.38;101213.78;5026904;27;102554;-69
2022/07/07 07:35:26;;;;;;;1.63;1.20;;;;;;;20.12;58.82;101215.28;5026500;27;99391;-70
2022/07/07 07:37:52;;;;;;;2.10;1.30;;;;;;;20.25;58.81;101213.47;5020603;27;98505;-71
2022/07/07 07:40:20;;;;;;;2.33;1.25;;;;;;;20.22;58.99;101202.06;5024094;27;96904;-69
2022/07/07 07:42:47;;;;;;;2.53;1.10;;;;;;;20.47;58.67;101206.66;5037928;27;99080;-70
2022/07/07 07:45:14;;;;;;;1.40;1.30;;;;;;;20.41;58.11;101199.91;5028921;27;97853;-71
2022/07/07 07:47:42;;;;;;;2.33;1.20;;;;;;;20.48;58.33;101216.44;5039511;27;96866;-71
2022/07/07 07:50:11;;;;;;;16.58;1.20;;;;;;;20.50;58.06;101199.25;5024891;27;97106;-70
2022/07/07 07:52:38;;;;;;;1.60;1.17;;;;;;;20.60;57.94;101204.84;5019170;27;99103;-71
2022/07/07 07:55:06;;;;;;;5.00;1.45;;;;;;;20.57;58.47;101203.22;5030052;27;99252;-71
2022/07/07 07:57:34;;;;;;;1.02;1.00;;;;;;;20.73;57.83;101202.16;5025518;27;97195;-70
2022/07/07 08:00:00;;;;;;;3.35;1.38;;;;;;;20.80;57.76;101201.63;5029741;27;96947;-70
2022/07/07 08:02:27;;;;;;;3.13;1.23;;;;;;;20.68;58.33;101200.63;5011262;27;98134;-69
2022/07/07 08:04:53;;;;;;;1.92;1.30;;;;;;;20.74;58.23;101209.25;5021485;27;98762;-70
2022/07/07 08:07:22;;;;;;;1.65;1.33;;;;;;;20.85;57.96;101202.16;5029372;27;99178;-71
2022/07/07 08:09:49;;;;;;;5.47;1.50;;;;;;;20.98;57.63;101203.00;5029273;27;96753;-70
2022/07/07 08:12:16;;;;;;;2.95;1.20;;;;;;;21.05;57.37;101203.41;5031477;27;98982;-70
2022/07/07 08:14:44;;;;;;;3.63;1.27;;;;;;;20.96;58.03;101204.91;5030498;27;99315;-70
2022/07/07 08:17:11;;;;;;;2.88;1.50;;;;;;;20.95;58.09;101208.56;5034271;27;97115;-71
2022/07/07 08:19:37;;;;;;;3.28;1.30;;;;;;;21.22;57.29;101205.75;5029822;27;97498;-71
2022/07/07 08:22:04;;;;;;;1.67;1.30;;;;;;;21.41;57.40;101200.75;5025506;27;101652;-69
2022/07/07 08:24:31;;;;;;;3.00;1.27;;;;;;;21.20;57.30;101206.84;5030046;27;99239;-70
2022/07/07 08:26:57;;;;;;;1.77;1.13;;;;;;;21.10;57.63;101201.25;5034146;27;97196;-69
2022/07/07 08:29:23;;;;;;;1.75;1.17;;;;;;;21.05;57.77;101201.59;5029582;27;96864;-70
2022/07/07 08:31:51;;;;;;;4.32;1.98;;;;;;;21.22;57.44;101205.75;5028975;27;97610;-70
2022/07/07 08:34:17;;;;;;;1.10;0.95;;;;;;;21.11;57.63;101204.78;5022964;27;101431;-70
2022/07/07 08:36:44;;;;;;;1.17;1.08;;;;;;;21.25;57.02;101204.69;5020039;27;97045;-70
2022/07/07 08:39:10;;;;;;;1.13;0.88;;;;;;;21.23;56.84;101198.56;5023345;27;96817;-71
2022/07/07 08:41:37;;;;;;;0.88;0.88;;;;;;;21.32;57.11;101204.13;5023713;27;98890;-70
2022/07/07 08:44:04;;;;;;;1.80;1.50;;;;;;;21.55;56.39;101194.34;5024244;27;99345;-70
2022/07/07 08:46:30;;;;;;;1.00;0.90;;;;;;;21.47;56.53;101196.75;5028234;27;96740;-70
2022/07/07 08:48:58;;;;;;;0.95;0.90;;;;;;;21.58;56.07;101199.53;5023654;27;97058;-71
2022/07/07 08:51:25;;;;;;;4.07;1.08;;;;;;;21.43;56.95;101214.09;5023827;27;98653;-71
2022/07/07 08:53:52;;;;;;;1.50;1.15;;;;;;;21.41;56.70;101198.06;5021208;27;98555;-71
2022/07/07 08:56:20;;;;;;;1.65;1.10;;;;;;;21.65;56.63;101195.41;5027056;27;98030;-70
2022/07/07 08:58:47;;;;;;;2.17;1.13;;;;;;;21.76;56.04;101199.97;5025509;27;97030;-70
2022/07/07 09:01:13;;;;;;;2.50;1.20;;;;;;;21.68;56.20;101199.69;5026442;27;99103;-70
2022/07/07 09:03:40;;;;;;;4.82;0.93;;;;;;;21.76;56.03;101195.44;5022706;27;98851;-70
2022/07/07 09:06:08;;;;;;;1.20;1.15;;;;;;;21.54;56.36;101195.31;5029209;27;96724;-70
2022/07/07 09:08:37;;;;;;;2.05;0.90;;;;;;;21.44;56.43;101192.47;5023671;27;97149;-70
2022/07/07 09:11:07;;;;;;;1.65;1.05;;;;;;;21.56;56.81;101188.00;5023969;27;99375;-70
2022/07/07 09:13:34;;;;;;;2.63;1.23;;;;;;;21.46;57.13;101193.19;5022221;27;99257;-70
2022/07/07 09:16:02;;;;;;;1.20;1.10;;;;;;;21.68;56.31;101187.09;5027149;27;97269;-70
2022/07/07 09:18:31;;;;;;;1.95;1.15;;;;;;;21.80;56.20;101196.94;5034161;27;97632;-70
2022/07/07 09:20:58;;;;;;;0.90;0.90;;;;;;;21.93;56.00;101190.63;5029572;27;99041;-70
2022/07/07 09:23:26;;;;;;;1.65;0.90;;;;;;;21.77;56.44;101191.78;5024518;27;101330;-70
2022/07/07 09:25:52;;;;;;;0.88;0.88;;;;;;;21.62;56.80;101195.63;5026122;27;96977;-70
2022/07/07 09:28:19;;;;;;;2.38;1.23;;;;;;;21.70;56.77;101195.91;5020205;27;98101;-70
2022/07/07 09:30:48;;;;;;;0.98;0.90;;;;;;;21.58;56.77;101194.16;5032679;27;98817;-70
2022/07/07 09:33:16;;;;;;;1.63;1.17;;;;;;;21.61;57.32;101201.97;5024341;27;98796;-70
2022/07/07 09:38:31;;;;;;;2.30;1.10;;;;;;;21.55;57.37;101191.66;5025453;27;96969;-71
2022/07/07 09:41:02;;;;;;;1.30;1.20;;;;;;;21.84;56.57;101202.94;5024097;27;98950;-70
2022/07/07 09:43:30;;;;;;;0.90;0.90;;;;;;;21.94;56.42;101203.09;5026732;27;98835;-71
2022/07/07 09:46:11;;;;;;;2.30;2.10;;;;;;;22.08;56.05;101208.31;5024868;27;96856;-70
2022/07/07 09:48:39;;;;;;;1.25;1.17;;;;;;;22.22;56.00;101203.59;5028391;27;98107;-71
2022/07/07 09:51:21;;;;;;;3.00;1.38;;;;;;;22.09;56.07;101204.66;5026106;27;101550;-71
2022/07/07 09:54:01;;;;;;;1.25;0.98;;;;;;;22.18;56.00;101206.66;5025024;27;101164;-72
2022/07/07 09:56:29;;;;;;;3.25;1.50;;;;;;;22.24;56.12;101206.19;5027238;27;97633;-71
2022/07/07 09:58:56;;;;;;;1.42;1.33;;;;;;;22.14;55.92;101207.84;5025403;27;97145;-70
2022/07/07 10:01:25;;;;;;;3.92;1.20;;;;;;;22.01;56.58;101201.69;5025167;27;98878;-70
2022/07/07 10:03:55;;;;;;;2.35;1.27;;;;;;;21.80;57.09;101209.50;5028237;27;98866;-70
2022/07/07 10:06:22;;;;;;;13.27;1.40;;;;;;;21.96;56.54;101202.06;5023832;27;97065;-70
2022/07/07 10:08:54;;;;;;;1.30;1.20;;;;;;;22.19;55.62;101202.97;5025141;27;97050;-70
2022/07/07 10:11:23;;;;;;;1.15;1.15;;;;;;;21.82;56.86;101205.75;5026078;27;97622;-71
2022/07/07 10:13:51;;;;;;;1.33;1.30;;;;;;;22.06;55.97;101211.13;5027112;27;99043;-70
2022/07/07 10:16:20;;;;;;;6.78;1.50;;;;;;;22.30;56.27;101205.72;5025227;27;97113;-72
2022/07/07 10:18:46;;;;;;;1.80;1.50;;;;;;;22.44;55.71;101205.50;5025876;27;97343;-70
2022/07/07 10:21:14;;;;;;;2.13;1.40;;;;;;;22.50;55.31;101213.13;5029997;27;99468;-70
2022/07/07 10:23:42;;;;;;;1.60;1.50;;;;;;;22.16;56.27;101206.78;5026729;27;99330;-70
2022/07/07 10:26:08;;;;;;;1.88;1.60;;;;;;;22.12;56.91;101207.97;5029483;27;96858;-69
2022/07/07 10:28:59;;;;;;;1.92;1.63;;;;;;;22.05;56.80;101214.81;5029265;27;97307;-71
2022/07/07 10:31:27;;;;;;;1.70;1.60;;;;;;;22.07;56.73;101210.16;5031124;27;99801;-71
2022/07/07 10:33:55;;;;;;;1.60;1.50;;;;;;;21.95;57.32;101220.97;5027826;27;99128;-71
2022/07/07 10:36:22;;;;;;;2.10;1.52;;;;;;;22.13;56.94;101214.22;5027977;27;96766;-70
2022/07/07 10:38:52;;;;;;;2.08;1.92;;;;;;;22.41;56.34;101218.34;5030959;27;97063;-71
2022/07/07 10:41:24;;;;;;;3.85;1.70;;;;;;;22.35;55.97;101225.06;5021018;27;98832;-70
2022/07/07 10:44:05;;;;;;;1.83;1.73;;;;;;;22.24;56.47;101222.34;5017183;27;98988;-69
2022/07/07 10:46:32;;;;;;;2.55;1.70;;;;;;;22.38;56.11;101219.44;5018935;27;96970;-71
2022/07/07 10:49:09;;;;;;;2.20;2.00;;;;;;;22.07;57.23;101222.75;5018255;27;98474;-70
2022/07/07 10:51:53;;;;;;;3.95;2.08;;;;;;;22.15;57.30;101236.50;5016013;27;98939;-70
2022/07/07 10:54:36;;;;;;;3.63;2.00;;;;;;;21.73;58.43;101229.78;5027512;27;98912;-70
2022/07/07 10:57:16;;;;;;;3.15;2.13;;;;;;;21.61;59.26;101231.53;5023622;27;98385;-71
2022/07/07 11:00:09;;;;;;;2.95;1.95;;;;;;;21.71;58.84;101229.91;5026128;27;96768;-71
2022/07/07 11:02:37;;;;;;;5.35;2.55;;;;;;;21.67;59.10;101235.59;5021916;27;98924;-70
2022/07/07 11:05:30;;;;;;;2.70;2.50;;;;;;;21.57;59.34;101226.50;5025919;27;98936;-70
2022/07/07 11:08:16;;;;;;;3.22;2.50;;;;;;;21.80;58.88;101229.22;5022305;27;96790;-70
2022/07/07 11:10:47;;;;;;;3.78;2.08;;;;;;;22.04;58.06;101225.69;5028928;27;96897;-70
2022/07/07 11:13:16;;;;;;;3.45;2.10;;;;;;;22.26;57.39;101231.13;5024333;27;98928;-70
2022/07/07 11:15:44;;;;;;;8.32;2.92;;;;;;;22.10;57.93;101230.59;5022821;27;98934;-71
2022/07/07 11:18:13;;;;;;;2.50;2.30;;;;;;;21.91;58.21;101232.94;5023168;27;96782;-71
2022/07/07 11:20:56;;;;;;;3.40;2.70;;;;;;;21.82;58.33;101232.66;5024650;27;98496;-70
2022/07/07 11:23:23;;;;;;;4.88;2.85;;;;;;;21.93;58.49;101236.34;5022863;27;99108;-71
2022/07/07 11:25:55;;;;;;;2.90;2.70;;;;;;;22.04;58.19;101231.06;5027059;27;98866;-73
2022/07/07 11:28:24;;;;;;;2.83;2.63;;;;;;;21.92;58.43;101232.84;5027890;27;97170;-70
2022/07/07 11:31:00;;;;;;;3.40;3.10;;;;;;;22.00;58.90;101235.81;5030820;27;96827;-71